Indian Land, South Carolina
Current Conditions -  °F | °C
As of 6:54 AM on Wednesday 28 Jan 2015 (Local Time) from KUZA Reporting Station
Clear Clear  
Wind Chill: 21°   Ceiling: Unl
Heat Index: 21°   Visibility: 10mi
Dew Point: 14°   Wind: 0mph
Humidity: 74%   Direction: NA
Pressure: 30.18"   Gusts: NA
Location:  34.9987°N, 80.9032°W
Report Text: KUZA 281154Z AUTO 00000KT 10SM CLR M06/M10 A3018 RMK AO2 SLP231 T10611100 11006 21061 53030
Loading
Personal Weather Stations






























Interactive Weather Map New forecast layout! Learn more

10-Day Weather Forecast

Advertisements
Track Severe Weather on mobile